sensor_id;sensor_type;location;lat;lon;timestamp;P1;durP1;ratioP1;P2;durP2;ratioP2
60169;SDS011;46042;49.444;6.862;2024-03-02T00:00:20;3.65;;;2.40;;
60169;SDS011;46042;49.444;6.862;2024-03-02T00:02:48;4.93;;;2.53;;
60169;SDS011;46042;49.444;6.862;2024-03-02T00:05:16;2.88;;;2.30;;
60169;SDS011;46042;49.444;6.862;2024-03-02T00:07:45;4.38;;;1.92;;
60169;SDS011;46042;49.444;6.862;2024-03-02T00:10:16;4.40;;;2.25;;
60169;SDS011;46042;49.444;6.862;2024-03-02T00:12:47;3.70;;;1.95;;
60169;SDS011;46042;49.444;6.862;2024-03-02T00:15:31;3.17;;;2.15;;
60169;SDS011;46042;49.444;6.862;2024-03-02T00:18:08;3.15;;;1.70;;
60169;SDS011;46042;49.444;6.862;2024-03-02T00:20:40;2.20;;;1.55;;
60169;SDS011;46042;49.444;6.862;2024-03-02T00:23:08;3.30;;;1.80;;
60169;SDS011;46042;49.444;6.862;2024-03-02T00:25:44;4.18;;;1.80;;
60169;SDS011;46042;49.444;6.862;2024-03-02T00:28:21;4.85;;;1.65;;
60169;SDS011;46042;49.444;6.862;2024-03-02T00:33:27;4.00;;;1.30;;
60169;SDS011;46042;49.444;6.862;2024-03-02T00:35:56;6.25;;;1.83;;
60169;SDS011;46042;49.444;6.862;2024-03-02T00:38:23;2.30;;;1.67;;
60169;SDS011;46042;49.444;6.862;2024-03-02T00:40:50;1.73;;;1.30;;
60169;SDS011;46042;49.444;6.862;2024-03-02T00:46:12;4.78;;;2.47;;
60169;SDS011;46042;49.444;6.862;2024-03-02T00:48:41;6.55;;;2.83;;
60169;SDS011;46042;49.444;6.862;2024-03-02T00:51:21;2.58;;;1.40;;
60169;SDS011;46042;49.444;6.862;2024-03-02T00:53:53;2.38;;;1.73;;
60169;SDS011;46042;49.444;6.862;2024-03-02T00:56:23;2.08;;;1.50;;
60169;SDS011;46042;49.444;6.862;2024-03-02T00:58:51;5.80;;;1.58;;
60169;SDS011;46042;49.444;6.862;2024-03-02T01:01:19;2.85;;;1.40;;
60169;SDS011;46042;49.444;6.862;2024-03-02T01:03:46;2.88;;;1.17;;
60169;SDS011;46042;49.444;6.862;2024-03-02T01:06:13;5.00;;;1.55;;
60169;SDS011;46042;49.444;6.862;2024-03-02T01:08:40;1.85;;;1.38;;
60169;SDS011;46042;49.444;6.862;2024-03-02T01:11:07;2.45;;;1.35;;
60169;SDS011;46042;49.444;6.862;2024-03-02T01:13:34;1.20;;;1.10;;
60169;SDS011;46042;49.444;6.862;2024-03-02T01:16:00;2.25;;;1.23;;
60169;SDS011;46042;49.444;6.862;2024-03-02T01:18:28;2.50;;;1.33;;
60169;SDS011;46042;49.444;6.862;2024-03-02T01:20:55;3.15;;;1.30;;
60169;SDS011;46042;49.444;6.862;2024-03-02T01:23:22;1.58;;;1.10;;
60169;SDS011;46042;49.444;6.862;2024-03-02T01:25:50;2.88;;;1.40;;
60169;SDS011;46042;49.444;6.862;2024-03-02T01:28:18;1.63;;;1.33;;
60169;SDS011;46042;49.444;6.862;2024-03-02T01:30:48;3.58;;;1.63;;
60169;SDS011;46042;49.444;6.862;2024-03-02T01:33:16;5.50;;;1.30;;
60169;SDS011;46042;49.444;6.862;2024-03-02T01:35:44;1.58;;;1.08;;
60169;SDS011;46042;49.444;6.862;2024-03-02T01:38:11;1.63;;;1.23;;
60169;SDS011;46042;49.444;6.862;2024-03-02T01:40:38;1.88;;;1.23;;
60169;SDS011;46042;49.444;6.862;2024-03-02T01:43:05;2.78;;;1.42;;
60169;SDS011;46042;49.444;6.862;2024-03-02T01:45:32;1.92;;;1.13;;
60169;SDS011;46042;49.444;6.862;2024-03-02T01:47:59;1.90;;;1.20;;
60169;SDS011;46042;49.444;6.862;2024-03-02T01:50:30;1.63;;;1.40;;
60169;SDS011;46042;49.444;6.862;2024-03-02T01:52:58;2.85;;;1.30;;
60169;SDS011;46042;49.444;6.862;2024-03-02T01:55:26;3.78;;;1.13;;
60169;SDS011;46042;49.444;6.862;2024-03-02T01:57:55;2.97;;;1.38;;
60169;SDS011;46042;49.444;6.862;2024-03-02T02:00:22;2.25;;;1.55;;
60169;SDS011;46042;49.444;6.862;2024-03-02T02:02:50;2.80;;;1.58;;
60169;SDS011;46042;49.444;6.862;2024-03-02T02:05:18;2.20;;;1.45;;
60169;SDS011;46042;49.444;6.862;2024-03-02T02:07:44;1.42;;;1.20;;
60169;SDS011;46042;49.444;6.862;2024-03-02T02:10:11;3.17;;;1.73;;
60169;SDS011;46042;49.444;6.862;2024-03-02T02:12:38;9.50;;;1.42;;
60169;SDS011;46042;49.444;6.862;2024-03-02T02:15:26;2.35;;;1.27;;
60169;SDS011;46042;49.444;6.862;2024-03-02T02:17:54;3.60;;;1.52;;
60169;SDS011;46042;49.444;6.862;2024-03-02T02:20:21;2.65;;;1.15;;
60169;SDS011;46042;49.444;6.862;2024-03-02T02:25:28;3.17;;;1.55;;
60169;SDS011;46042;49.444;6.862;2024-03-02T02:27:56;1.98;;;1.00;;
60169;SDS011;46042;49.444;6.862;2024-03-02T02:30:28;2.00;;;1.23;;
60169;SDS011;46042;49.444;6.862;2024-03-02T02:32:56;2.00;;;1.25;;
60169;SDS011;46042;49.444;6.862;2024-03-02T02:35:24;2.28;;;1.23;;
60169;SDS011;46042;49.444;6.862;2024-03-02T02:37:51;2.70;;;1.42;;
60169;SDS011;46042;49.444;6.862;2024-03-02T02:40:20;4.40;;;1.73;;
60169;SDS011;46042;49.444;6.862;2024-03-02T02:42:47;3.42;;;1.30;;
60169;SDS011;46042;49.444;6.862;2024-03-02T02:45:14;1.80;;;1.33;;
60169;SDS011;46042;49.444;6.862;2024-03-02T02:47:42;4.10;;;1.40;;
60169;SDS011;46042;49.444;6.862;2024-03-02T02:50:11;1.35;;;1.25;;
60169;SDS011;46042;49.444;6.862;2024-03-02T02:52:40;3.78;;;1.55;;
60169;SDS011;46042;49.444;6.862;2024-03-02T02:55:08;3.33;;;1.80;;
60169;SDS011;46042;49.444;6.862;2024-03-02T02:57:36;3.13;;;1.60;;
60169;SDS011;46042;49.444;6.862;2024-03-02T03:00:06;2.92;;;1.55;;
60169;SDS011;46042;49.444;6.862;2024-03-02T03:02:40;2.80;;;1.65;;
60169;SDS011;46042;49.444;6.862;2024-03-02T03:05:11;3.47;;;1.35;;
60169;SDS011;46042;49.444;6.862;2024-03-02T03:07:40;1.48;;;1.25;;
60169;SDS011;46042;49.444;6.862;2024-03-02T03:10:07;1.98;;;1.30;;
60169;SDS011;46042;49.444;6.862;2024-03-02T03:12:35;1.80;;;1.15;;
60169;SDS011;46042;49.444;6.862;2024-03-02T03:15:03;2.03;;;1.33;;
60169;SDS011;46042;49.444;6.862;2024-03-02T03:17:35;2.92;;;1.40;;
60169;SDS011;46042;49.444;6.862;2024-03-02T03:20:02;2.90;;;1.50;;
60169;SDS011;46042;49.444;6.862;2024-03-02T03:22:30;1.10;;;1.00;;
60169;SDS011;46042;49.444;6.862;2024-03-02T03:24:58;2.00;;;1.45;;
60169;SDS011;46042;49.444;6.862;2024-03-02T03:27:24;2.92;;;1.30;;
60169;SDS011;46042;49.444;6.862;2024-03-02T03:29:51;1.92;;;1.20;;
60169;SDS011;46042;49.444;6.862;2024-03-02T03:32:18;2.03;;;1.33;;
60169;SDS011;46042;49.444;6.862;2024-03-02T03:34:44;4.22;;;1.40;;
60169;SDS011;46042;49.444;6.862;2024-03-02T03:37:12;3.47;;;1.65;;
60169;SDS011;46042;49.444;6.862;2024-03-02T03:39:38;1.33;;;1.23;;
60169;SDS011;46042;49.444;6.862;2024-03-02T03:42:05;2.00;;;1.27;;
60169;SDS011;46042;49.444;6.862;2024-03-02T03:44:32;2.72;;;1.20;;
60169;SDS011;46042;49.444;6.862;2024-03-02T03:46:59;7.60;;;1.30;;
60169;SDS011;46042;49.444;6.862;2024-03-02T03:49:28;2.42;;;1.50;;
60169;SDS011;46042;49.444;6.862;2024-03-02T03:55:41;4.22;;;1.48;;
60169;SDS011;46042;49.444;6.862;2024-03-02T04:01:56;1.65;;;1.30;;
60169;SDS011;46042;49.444;6.862;2024-03-02T04:04:22;3.70;;;1.20;;
60169;SDS011;46042;49.444;6.862;2024-03-02T04:06:49;2.65;;;1.23;;
60169;SDS011;46042;49.444;6.862;2024-03-02T04:09:15;1.88;;;1.23;;
60169;SDS011;46042;49.444;6.862;2024-03-02T04:11:42;1.40;;;1.25;;
60169;SDS011;46042;49.444;6.862;2024-03-02T04:14:09;1.77;;;1.27;;
60169;SDS011;46042;49.444;6.862;2024-03-02T04:16:36;2.13;;;1.30;;
60169;SDS011;46042;49.444;6.862;2024-03-02T04:19:02;1.75;;;1.10;;
60169;SDS011;46042;49.444;6.862;2024-03-02T04:21:30;3.25;;;1.65;;
60169;SDS011;46042;49.444;6.862;2024-03-02T04:23:57;3.10;;;1.60;;
60169;SDS011;46042;49.444;6.862;2024-03-02T04:26:25;2.75;;;1.50;;
60169;SDS011;46042;49.444;6.862;2024-03-02T04:28:53;2.80;;;1.33;;
60169;SDS011;46042;49.444;6.862;2024-03-02T04:31:20;2.33;;;1.40;;
60169;SDS011;46042;49.444;6.862;2024-03-02T04:33:47;1.25;;;1.10;;
60169;SDS011;46042;49.444;6.862;2024-03-02T04:36:14;2.00;;;1.30;;
60169;SDS011;46042;49.444;6.862;2024-03-02T04:38:41;2.35;;;1.55;;
60169;SDS011;46042;49.444;6.862;2024-03-02T04:41:07;3.67;;;1.10;;
60169;SDS011;46042;49.444;6.862;2024-03-02T04:43:34;1.83;;;1.40;;
60169;SDS011;46042;49.444;6.862;2024-03-02T04:46:01;2.25;;;1.48;;
60169;SDS011;46042;49.444;6.862;2024-03-02T04:48:28;1.85;;;1.30;;
60169;SDS011;46042;49.444;6.862;2024-03-02T04:50:55;2.50;;;1.48;;
60169;SDS011;46042;49.444;6.862;2024-03-02T04:53:22;2.05;;;1.45;;
60169;SDS011;46042;49.444;6.862;2024-03-02T04:55:48;2.38;;;1.40;;
60169;SDS011;46042;49.444;6.862;2024-03-02T04:58:33;1.88;;;1.63;;
60169;SDS011;46042;49.444;6.862;2024-03-02T05:01:00;3.97;;;1.55;;
60169;SDS011;46042;49.444;6.862;2024-03-02T05:03:27;3.30;;;1.52;;
60169;SDS011;46042;49.444;6.862;2024-03-02T05:05:53;1.85;;;1.52;;
60169;SDS011;46042;49.444;6.862;2024-03-02T05:08:20;4.93;;;1.60;;
60169;SDS011;46042;49.444;6.862;2024-03-02T05:10:47;3.80;;;1.70;;
60169;SDS011;46042;49.444;6.862;2024-03-02T05:13:14;2.75;;;1.67;;
60169;SDS011;46042;49.444;6.862;2024-03-02T05:15:40;2.38;;;1.63;;
60169;SDS011;46042;49.444;6.862;2024-03-02T05:18:07;2.30;;;1.50;;
60169;SDS011;46042;49.444;6.862;2024-03-02T05:20:34;1.58;;;1.20;;
60169;SDS011;46042;49.444;6.862;2024-03-02T05:23:00;3.10;;;1.40;;
60169;SDS011;46042;49.444;6.862;2024-03-02T05:25:27;3.72;;;1.77;;
60169;SDS011;46042;49.444;6.862;2024-03-02T05:27:54;4.40;;;1.40;;
60169;SDS011;46042;49.444;6.862;2024-03-02T05:30:21;2.13;;;1.20;;
60169;SDS011;46042;49.444;6.862;2024-03-02T05:32:47;1.40;;;1.30;;
60169;SDS011;46042;49.444;6.862;2024-03-02T05:35:14;4.20;;;1.60;;
60169;SDS011;46042;49.444;6.862;2024-03-02T05:37:40;2.15;;;1.60;;
60169;SDS011;46042;49.444;6.862;2024-03-02T05:40:07;4.35;;;1.95;;
60169;SDS011;46042;49.444;6.862;2024-03-02T05:42:34;4.20;;;1.80;;
60169;SDS011;46042;49.444;6.862;2024-03-02T05:45:01;4.90;;;1.80;;
60169;SDS011;46042;49.444;6.862;2024-03-02T05:47:28;4.03;;;1.67;;
60169;SDS011;46042;49.444;6.862;2024-03-02T05:49:55;6.07;;;1.60;;
60169;SDS011;46042;49.444;6.862;2024-03-02T05:52:21;3.35;;;1.50;;
60169;SDS011;46042;49.444;6.862;2024-03-02T05:54:48;4.35;;;1.55;;
60169;SDS011;46042;49.444;6.862;2024-03-02T05:57:16;2.17;;;1.48;;
60169;SDS011;46042;49.444;6.862;2024-03-02T05:59:43;3.92;;;1.77;;
60169;SDS011;46042;49.444;6.862;2024-03-02T06:02:10;3.75;;;1.83;;
60169;SDS011;46042;49.444;6.862;2024-03-02T06:04:37;2.00;;;1.60;;
60169;SDS011;46042;49.444;6.862;2024-03-02T06:07:03;3.60;;;1.90;;
60169;SDS011;46042;49.444;6.862;2024-03-02T06:09:30;2.83;;;2.00;;
60169;SDS011;46042;49.444;6.862;2024-03-02T06:11:57;2.88;;;1.90;;
60169;SDS011;46042;49.444;6.862;2024-03-02T06:14:24;4.38;;;2.40;;
60169;SDS011;46042;49.444;6.862;2024-03-02T06:16:50;2.13;;;1.45;;
60169;SDS011;46042;49.444;6.862;2024-03-02T06:19:17;8.10;;;1.80;;
60169;SDS011;46042;49.444;6.862;2024-03-02T06:21:44;3.78;;;1.80;;
60169;SDS011;46042;49.444;6.862;2024-03-02T06:24:10;3.90;;;1.67;;
60169;SDS011;46042;49.444;6.862;2024-03-02T06:26:38;2.97;;;1.60;;
60169;SDS011;46042;49.444;6.862;2024-03-02T06:29:09;2.58;;;1.40;;
60169;SDS011;46042;49.444;6.862;2024-03-02T06:31:35;3.65;;;1.80;;
60169;SDS011;46042;49.444;6.862;2024-03-02T06:34:02;2.38;;;1.58;;
60169;SDS011;46042;49.444;6.862;2024-03-02T06:36:31;4.65;;;1.85;;
60169;SDS011;46042;49.444;6.862;2024-03-02T06:38:58;6.32;;;2.03;;
60169;SDS011;46042;49.444;6.862;2024-03-02T06:41:24;7.28;;;1.63;;
60169;SDS011;46042;49.444;6.862;2024-03-02T06:43:52;4.68;;;1.60;;
60169;SDS011;46042;49.444;6.862;2024-03-02T06:46:26;6.35;;;1.90;;
60169;SDS011;46042;49.444;6.862;2024-03-02T06:48:53;2.33;;;1.52;;
60169;SDS011;46042;49.444;6.862;2024-03-02T06:51:20;3.28;;;1.75;;
60169;SDS011;46042;49.444;6.862;2024-03-02T06:53:47;4.75;;;1.90;;
60169;SDS011;46042;49.444;6.862;2024-03-02T06:56:14;2.78;;;1.75;;
60169;SDS011;46042;49.444;6.862;2024-03-02T06:58:40;4.00;;;2.22;;
60169;SDS011;46042;49.444;6.862;2024-03-02T07:01:09;9.32;;;3.88;;
60169;SDS011;46042;49.444;6.862;2024-03-02T07:03:36;6.30;;;2.30;;
60169;SDS011;46042;49.444;6.862;2024-03-02T07:06:03;4.95;;;2.53;;
60169;SDS011;46042;49.444;6.862;2024-03-02T07:08:30;5.65;;;2.50;;
60169;SDS011;46042;49.444;6.862;2024-03-02T07:10:56;6.85;;;2.05;;
60169;SDS011;46042;49.444;6.862;2024-03-02T07:13:23;5.50;;;3.13;;
60169;SDS011;46042;49.444;6.862;2024-03-02T07:15:50;8.43;;;2.97;;
60169;SDS011;46042;49.444;6.862;2024-03-02T07:18:36;16.67;;;7.18;;
60169;SDS011;46042;49.444;6.862;2024-03-02T07:21:07;7.80;;;4.05;;
60169;SDS011;46042;49.444;6.862;2024-03-02T07:23:34;7.20;;;2.83;;
60169;SDS011;46042;49.444;6.862;2024-03-02T07:26:00;4.63;;;2.40;;
60169;SDS011;46042;49.444;6.862;2024-03-02T07:28:31;2.10;;;1.50;;
60169;SDS011;46042;49.444;6.862;2024-03-02T07:31:00;3.58;;;1.80;;
60169;SDS011;46042;49.444;6.862;2024-03-02T07:33:27;4.32;;;1.98;;
60169;SDS011;46042;49.444;6.862;2024-03-02T07:35:54;5.50;;;2.10;;
60169;SDS011;46042;49.444;6.862;2024-03-02T07:38:22;5.65;;;2.25;;
60169;SDS011;46042;49.444;6.862;2024-03-02T07:40:49;4.47;;;2.40;;
60169;SDS011;46042;49.444;6.862;2024-03-02T07:43:19;4.80;;;2.40;;
60169;SDS011;46042;49.444;6.862;2024-03-02T07:45:46;5.22;;;2.53;;
60169;SDS011;46042;49.444;6.862;2024-03-02T07:48:14;5.25;;;3.05;;
60169;SDS011;46042;49.444;6.862;2024-03-02T07:50:41;6.93;;;3.63;;
60169;SDS011;46042;49.444;6.862;2024-03-02T07:53:09;4.25;;;2.38;;
60169;SDS011;46042;49.444;6.862;2024-03-02T07:55:36;5.90;;;2.28;;
60169;SDS011;46042;49.444;6.862;2024-03-02T07:58:02;3.40;;;1.92;;
60169;SDS011;46042;49.444;6.862;2024-03-02T08:00:29;5.85;;;2.70;;
60169;SDS011;46042;49.444;6.862;2024-03-02T08:02:56;6.80;;;3.50;;
60169;SDS011;46042;49.444;6.862;2024-03-02T08:05:23;3.83;;;2.90;;
60169;SDS011;46042;49.444;6.862;2024-03-02T08:07:49;9.23;;;3.50;;
60169;SDS011;46042;49.444;6.862;2024-03-02T08:10:19;5.93;;;2.70;;
60169;SDS011;46042;49.444;6.862;2024-03-02T08:12:46;8.68;;;2.40;;
60169;SDS011;46042;49.444;6.862;2024-03-02T08:18:04;6.05;;;2.55;;
60169;SDS011;46042;49.444;6.862;2024-03-02T08:20:31;9.50;;;2.75;;
60169;SDS011;46042;49.444;6.862;2024-03-02T08:23:01;10.77;;;3.28;;
60169;SDS011;46042;49.444;6.862;2024-03-02T08:25:28;5.75;;;3.10;;
60169;SDS011;46042;49.444;6.862;2024-03-02T08:27:56;5.43;;;3.45;;
60169;SDS011;46042;49.444;6.862;2024-03-02T08:30:23;4.85;;;2.88;;
60169;SDS011;46042;49.444;6.862;2024-03-02T08:32:50;5.75;;;2.78;;
60169;SDS011;46042;49.444;6.862;2024-03-02T08:35:17;8.45;;;3.60;;
60169;SDS011;46042;49.444;6.862;2024-03-02T08:37:43;4.28;;;2.08;;
60169;SDS011;46042;49.444;6.862;2024-03-02T08:40:10;9.65;;;2.10;;
60169;SDS011;46042;49.444;6.862;2024-03-02T08:42:42;2.53;;;2.10;;
60169;SDS011;46042;49.444;6.862;2024-03-02T08:45:09;6.90;;;4.03;;
60169;SDS011;46042;49.444;6.862;2024-03-02T08:47:36;3.28;;;2.20;;
60169;SDS011;46042;49.444;6.862;2024-03-02T08:52:35;4.82;;;2.90;;
60169;SDS011;46042;49.444;6.862;2024-03-02T08:55:02;4.35;;;2.70;;
60169;SDS011;46042;49.444;6.862;2024-03-02T08:57:29;4.28;;;2.35;;
60169;SDS011;46042;49.444;6.862;2024-03-02T08:59:55;5.78;;;2.28;;
60169;SDS011;46042;49.444;6.862;2024-03-02T09:02:22;5.40;;;2.17;;
60169;SDS011;46042;49.444;6.862;2024-03-02T09:08:12;2.58;;;1.98;;
60169;SDS011;46042;49.444;6.862;2024-03-02T09:10:39;10.43;;;2.50;;
60169;SDS011;46042;49.444;6.862;2024-03-02T09:13:06;4.20;;;2.30;;
60169;SDS011;46042;49.444;6.862;2024-03-02T09:15:33;3.63;;;2.03;;
60169;SDS011;46042;49.444;6.862;2024-03-02T09:18:04;2.97;;;2.05;;
60169;SDS011;46042;49.444;6.862;2024-03-02T09:20:30;3.42;;;2.03;;
60169;SDS011;46042;49.444;6.862;2024-03-02T09:22:57;4.40;;;2.72;;
60169;SDS011;46042;49.444;6.862;2024-03-02T09:25:24;2.85;;;2.25;;
60169;SDS011;46042;49.444;6.862;2024-03-02T09:27:51;3.72;;;2.58;;
60169;SDS011;46042;49.444;6.862;2024-03-02T09:30:18;5.38;;;2.40;;
60169;SDS011;46042;49.444;6.862;2024-03-02T09:32:45;4.65;;;3.20;;
60169;SDS011;46042;49.444;6.862;2024-03-02T09:35:15;7.97;;;3.60;;
60169;SDS011;46042;49.444;6.862;2024-03-02T09:37:42;5.90;;;2.55;;
60169;SDS011;46042;49.444;6.862;2024-03-02T09:40:08;5.63;;;3.08;;
60169;SDS011;46042;49.444;6.862;2024-03-02T09:42:38;5.07;;;2.60;;
60169;SDS011;46042;49.444;6.862;2024-03-02T09:45:06;4.65;;;2.13;;
60169;SDS011;46042;49.444;6.862;2024-03-02T09:47:33;4.80;;;2.33;;
60169;SDS011;46042;49.444;6.862;2024-03-02T09:49:59;3.80;;;1.80;;
60169;SDS011;46042;49.444;6.862;2024-03-02T09:52:26;2.92;;;2.00;;
60169;SDS011;46042;49.444;6.862;2024-03-02T09:54:53;2.13;;;1.60;;
60169;SDS011;46042;49.444;6.862;2024-03-02T09:57:20;7.88;;;2.25;;
60169;SDS011;46042;49.444;6.862;2024-03-02T09:59:47;3.03;;;1.80;;
60169;SDS011;46042;49.444;6.862;2024-03-02T10:02:13;2.58;;;1.70;;
60169;SDS011;46042;49.444;6.862;2024-03-02T10:04:40;2.28;;;1.48;;
60169;SDS011;46042;49.444;6.862;2024-03-02T10:12:14;2.83;;;1.75;;
60169;SDS011;46042;49.444;6.862;2024-03-02T10:14:42;4.85;;;1.88;;
60169;SDS011;46042;49.444;6.862;2024-03-02T10:17:10;2.55;;;1.75;;
60169;SDS011;46042;49.444;6.862;2024-03-02T10:19:41;4.50;;;2.20;;
60169;SDS011;46042;49.444;6.862;2024-03-02T10:22:08;2.05;;;1.80;;
60169;SDS011;46042;49.444;6.862;2024-03-02T10:24:37;1.90;;;1.73;;
60169;SDS011;46042;49.444;6.862;2024-03-02T10:27:08;2.97;;;1.48;;
60169;SDS011;46042;49.444;6.862;2024-03-02T10:29:37;3.10;;;1.73;;
60169;SDS011;46042;49.444;6.862;2024-03-02T10:32:05;4.18;;;2.08;;
60169;SDS011;46042;49.444;6.862;2024-03-02T10:34:35;2.88;;;1.73;;
60169;SDS011;46042;49.444;6.862;2024-03-02T10:37:02;4.38;;;1.90;;
60169;SDS011;46042;49.444;6.862;2024-03-02T10:39:31;2.50;;;1.52;;
60169;SDS011;46042;49.444;6.862;2024-03-02T10:41:59;3.17;;;1.52;;
60169;SDS011;46042;49.444;6.862;2024-03-02T10:44:30;2.17;;;1.50;;
60169;SDS011;46042;49.444;6.862;2024-03-02T10:47:02;1.30;;;1.20;;
60169;SDS011;46042;49.444;6.862;2024-03-02T10:49:32;3.15;;;1.30;;
60169;SDS011;46042;49.444;6.862;2024-03-02T10:52:03;2.15;;;1.45;;
60169;SDS011;46042;49.444;6.862;2024-03-02T10:54:30;2.58;;;1.27;;
60169;SDS011;46042;49.444;6.862;2024-03-02T10:57:03;2.58;;;1.60;;
60169;SDS011;46042;49.444;6.862;2024-03-02T10:59:33;2.55;;;1.50;;
60169;SDS011;46042;49.444;6.862;2024-03-02T11:02:07;1.80;;;1.38;;
60169;SDS011;46042;49.444;6.862;2024-03-02T11:05:55;2.28;;;1.33;;
60169;SDS011;46042;49.444;6.862;2024-03-02T11:08:24;3.38;;;1.45;;
60169;SDS011;46042;49.444;6.862;2024-03-02T11:10:58;1.35;;;1.15;;
60169;SDS011;46042;49.444;6.862;2024-03-02T11:13:33;2.70;;;1.45;;
60169;SDS011;46042;49.444;6.862;2024-03-02T11:16:12;1.60;;;1.23;;
60169;SDS011;46042;49.444;6.862;2024-03-02T11:18:50;2.75;;;1.33;;
60169;SDS011;46042;49.444;6.862;2024-03-02T11:21:17;2.60;;;1.52;;
60169;SDS011;46042;49.444;6.862;2024-03-02T11:23:44;1.63;;;1.30;;
60169;SDS011;46042;49.444;6.862;2024-03-02T11:26:16;1.38;;;1.27;;
60169;SDS011;46042;49.444;6.862;2024-03-02T11:28:47;1.83;;;1.13;;
60169;SDS011;46042;49.444;6.862;2024-03-02T11:31:14;1.65;;;1.20;;
60169;SDS011;46042;49.444;6.862;2024-03-02T11:40:22;2.05;;;1.38;;
60169;SDS011;46042;49.444;6.862;2024-03-02T11:42:48;1.55;;;1.13;;
60169;SDS011;46042;49.444;6.862;2024-03-02T11:45:25;1.83;;;1.40;;
60169;SDS011;46042;49.444;6.862;2024-03-02T11:47:57;3.40;;;1.15;;
60169;SDS011;46042;49.444;6.862;2024-03-02T11:50:34;2.05;;;1.52;;
60169;SDS011;46042;49.444;6.862;2024-03-02T11:53:03;3.25;;;2.30;;
60169;SDS011;46042;49.444;6.862;2024-03-02T11:55:33;1.20;;;1.10;;
60169;SDS011;46042;49.444;6.862;2024-03-02T11:58:03;1.50;;;1.30;;
60169;SDS011;46042;49.444;6.862;2024-03-02T12:00:30;6.25;;;1.50;;
60169;SDS011;46042;49.444;6.862;2024-03-02T12:03:01;6.78;;;4.32;;
60169;SDS011;46042;49.444;6.862;2024-03-02T12:05:30;1.50;;;1.40;;
60169;SDS011;46042;49.444;6.862;2024-03-02T12:07:59;1.42;;;1.30;;
60169;SDS011;46042;49.444;6.862;2024-03-02T12:10:27;4.88;;;2.33;;
60169;SDS011;46042;49.444;6.862;2024-03-02T12:13:04;1.80;;;1.10;;
60169;SDS011;46042;49.444;6.862;2024-03-02T12:15:38;2.58;;;1.50;;
60169;SDS011;46042;49.444;6.862;2024-03-02T12:18:06;3.35;;;1.70;;
60169;SDS011;46042;49.444;6.862;2024-03-02T12:20:33;5.82;;;3.80;;
60169;SDS011;46042;49.444;6.862;2024-03-02T12:23:02;4.00;;;1.63;;
60169;SDS011;46042;49.444;6.862;2024-03-02T12:25:31;1.70;;;1.40;;
60169;SDS011;46042;49.444;6.862;2024-03-02T12:28:00;1.27;;;1.17;;
60169;SDS011;46042;49.444;6.862;2024-03-02T12:30:29;5.35;;;1.50;;
60169;SDS011;46042;49.444;6.862;2024-03-02T12:32:57;2.42;;;1.23;;
60169;SDS011;46042;49.444;6.862;2024-03-02T12:35:24;1.15;;;1.05;;
60169;SDS011;46042;49.444;6.862;2024-03-02T12:37:52;5.13;;;1.20;;
60169;SDS011;46042;49.444;6.862;2024-03-02T12:40:20;1.80;;;1.10;;
60169;SDS011;46042;49.444;6.862;2024-03-02T12:42:50;2.45;;;1.10;;
60169;SDS011;46042;49.444;6.862;2024-03-02T12:45:17;1.23;;;1.05;;
60169;SDS011;46042;49.444;6.862;2024-03-02T12:47:51;2.15;;;1.38;;
60169;SDS011;46042;49.444;6.862;2024-03-02T12:50:18;3.25;;;1.90;;
60169;SDS011;46042;49.444;6.862;2024-03-02T12:52:52;4.50;;;2.50;;
60169;SDS011;46042;49.444;6.862;2024-03-02T12:55:20;5.50;;;2.65;;
60169;SDS011;46042;49.444;6.862;2024-03-02T12:57:53;3.50;;;2.35;;
60169;SDS011;46042;49.444;6.862;2024-03-02T13:00:21;2.67;;;1.80;;
60169;SDS011;46042;49.444;6.862;2024-03-02T13:02:49;2.33;;;1.50;;
60169;SDS011;46042;49.444;6.862;2024-03-02T13:05:18;1.33;;;1.20;;
60169;SDS011;46042;49.444;6.862;2024-03-02T13:07:47;1.55;;;1.27;;
60169;SDS011;46042;49.444;6.862;2024-03-02T13:10:14;4.32;;;1.35;;
60169;SDS011;46042;49.444;6.862;2024-03-02T13:12:42;2.05;;;1.20;;
60169;SDS011;46042;49.444;6.862;2024-03-02T13:15:09;1.15;;;1.02;;
60169;SDS011;46042;49.444;6.862;2024-03-02T13:17:41;1.58;;;1.20;;
60169;SDS011;46042;49.444;6.862;2024-03-02T13:20:08;1.70;;;1.30;;
60169;SDS011;46042;49.444;6.862;2024-03-02T13:22:37;1.65;;;1.30;;
60169;SDS011;46042;49.444;6.862;2024-03-02T13:25:04;1.63;;;1.25;;
60169;SDS011;46042;49.444;6.862;2024-03-02T13:27:32;1.40;;;1.30;;
60169;SDS011;46042;49.444;6.862;2024-03-02T13:29:59;1.52;;;1.20;;
60169;SDS011;46042;49.444;6.862;2024-03-02T13:32:26;3.35;;;1.55;;
60169;SDS011;46042;49.444;6.862;2024-03-02T13:34:53;6.40;;;2.30;;
60169;SDS011;46042;49.444;6.862;2024-03-02T13:37:20;3.47;;;2.08;;
60169;SDS011;46042;49.444;6.862;2024-03-02T13:39:47;3.28;;;1.60;;
60169;SDS011;46042;49.444;6.862;2024-03-02T13:42:15;1.10;;;1.08;;
60169;SDS011;46042;49.444;6.862;2024-03-02T13:44:44;2.70;;;1.45;;
60169;SDS011;46042;49.444;6.862;2024-03-02T13:47:16;1.83;;;1.48;;
60169;SDS011;46042;49.444;6.862;2024-03-02T13:49:43;3.67;;;2.00;;
60169;SDS011;46042;49.444;6.862;2024-03-02T13:52:12;2.22;;;1.48;;
60169;SDS011;46042;49.444;6.862;2024-03-02T13:57:11;1.35;;;1.17;;
60169;SDS011;46042;49.444;6.862;2024-03-02T13:59:39;1.45;;;1.25;;
60169;SDS011;46042;49.444;6.862;2024-03-02T14:02:07;1.90;;;1.52;;
60169;SDS011;46042;49.444;6.862;2024-03-02T14:04:35;1.40;;;1.30;;
60169;SDS011;46042;49.444;6.862;2024-03-02T14:07:03;3.22;;;1.60;;
60169;SDS011;46042;49.444;6.862;2024-03-02T14:09:33;2.00;;;1.40;;
60169;SDS011;46042;49.444;6.862;2024-03-02T14:12:00;1.65;;;1.15;;
60169;SDS011;46042;49.444;6.862;2024-03-02T14:14:28;2.70;;;1.67;;
60169;SDS011;46042;49.444;6.862;2024-03-02T14:16:55;2.88;;;1.90;;
60169;SDS011;46042;49.444;6.862;2024-03-02T14:19:22;1.48;;;1.38;;
60169;SDS011;46042;49.444;6.862;2024-03-02T14:21:49;2.88;;;2.08;;
60169;SDS011;46042;49.444;6.862;2024-03-02T14:24:16;2.70;;;1.85;;
60169;SDS011;46042;49.444;6.862;2024-03-02T14:26:43;6.65;;;3.40;;
60169;SDS011;46042;49.444;6.862;2024-03-02T14:29:11;4.20;;;2.50;;
60169;SDS011;46042;49.444;6.862;2024-03-02T14:31:38;4.68;;;2.30;;
60169;SDS011;46042;49.444;6.862;2024-03-02T14:34:05;4.63;;;2.30;;
60169;SDS011;46042;49.444;6.862;2024-03-02T14:36:37;3.92;;;1.75;;
60169;SDS011;46042;49.444;6.862;2024-03-02T14:39:03;3.47;;;2.03;;
60169;SDS011;46042;49.444;6.862;2024-03-02T14:41:30;1.83;;;1.60;;
60169;SDS011;46042;49.444;6.862;2024-03-02T14:43:57;4.90;;;2.28;;
60169;SDS011;46042;49.444;6.862;2024-03-02T14:46:24;9.80;;;5.40;;
60169;SDS011;46042;49.444;6.862;2024-03-02T14:48:51;3.60;;;2.30;;
60169;SDS011;46042;49.444;6.862;2024-03-02T14:51:18;2.55;;;1.77;;
60169;SDS011;46042;49.444;6.862;2024-03-02T14:53:47;3.70;;;2.03;;
60169;SDS011;46042;49.444;6.862;2024-03-02T14:56:14;6.05;;;2.83;;
60169;SDS011;46042;49.444;6.862;2024-03-02T14:58:41;12.73;;;5.70;;
60169;SDS011;46042;49.444;6.862;2024-03-02T15:01:10;8.45;;;4.22;;
60169;SDS011;46042;49.444;6.862;2024-03-02T15:03:36;6.32;;;2.40;;
60169;SDS011;46042;49.444;6.862;2024-03-02T15:06:04;8.63;;;3.38;;
60169;SDS011;46042;49.444;6.862;2024-03-02T15:08:31;7.63;;;4.63;;
60169;SDS011;46042;49.444;6.862;2024-03-02T15:10:58;6.65;;;2.38;;
60169;SDS011;46042;49.444;6.862;2024-03-02T15:13:27;1.95;;;1.60;;
60169;SDS011;46042;49.444;6.862;2024-03-02T15:15:54;1.75;;;1.45;;
60169;SDS011;46042;49.444;6.862;2024-03-02T15:22:05;2.97;;;1.42;;
60169;SDS011;46042;49.444;6.862;2024-03-02T15:25:53;2.10;;;1.38;;
60169;SDS011;46042;49.444;6.862;2024-03-02T15:28:21;2.00;;;1.50;;
60169;SDS011;46042;49.444;6.862;2024-03-02T15:30:48;2.20;;;1.50;;
60169;SDS011;46042;49.444;6.862;2024-03-02T15:33:17;1.95;;;1.33;;
60169;SDS011;46042;49.444;6.862;2024-03-02T15:35:44;1.55;;;1.30;;
60169;SDS011;46042;49.444;6.862;2024-03-02T15:38:11;1.50;;;1.30;;